createdAt,value
2023-02-07T00:04:14.695Z,-5.5
2023-02-07T00:09:36.554Z,-5.5
2023-02-07T00:15:12.776Z,-5.5
2023-02-07T00:20:49.546Z,-5.5
2023-02-07T00:26:27.376Z,-5.5
2023-02-07T00:32:06.733Z,-5.6
2023-02-07T00:37:13.920Z,-5.5
2023-02-07T00:42:51.811Z,-5.6
2023-02-07T00:48:33.657Z,-5.6
2023-02-07T00:54:10.719Z,-5.6
2023-02-07T00:59:48.879Z,-5.6
2023-02-07T01:05:27.254Z,-5.6
2023-02-07T01:10:49.171Z,-5.6
2023-02-07T01:16:10.955Z,-5.6
2023-02-07T01:21:33.038Z,-5.6
2023-02-07T01:26:54.519Z,-5.6
2023-02-07T01:32:32.413Z,-5.6
2023-02-07T01:38:10.292Z,-5.6
2023-02-07T01:43:47.333Z,-5.6
2023-02-07T01:49:24.412Z,-5.6
2023-02-07T01:55:04.318Z,-5.6
2023-02-07T02:00:40.852Z,-5.6
2023-02-07T02:06:03.504Z,-5.6
2023-02-07T02:11:25.556Z,-5.6
2023-02-07T02:17:02.492Z,-5.6
2023-02-07T02:22:39.821Z,-5.6
2023-02-07T02:28:16.254Z,-5.6
2023-02-07T02:33:53.924Z,-5.6
2023-02-07T02:39:31.136Z,-5.6
2023-02-07T02:44:52.739Z,-5.6
2023-02-07T02:50:28.861Z,-5.6
2023-02-07T02:56:20.883Z,-5.6
2023-02-07T03:02:02.096Z,-5.6
2023-02-07T03:07:39.363Z,-5.6
2023-02-07T03:13:15.910Z,-5.6
2023-02-07T03:18:54.273Z,-5.6
2023-02-07T03:24:31.122Z,-5.6
2023-02-07T03:29:37.629Z,-5.6
2023-02-07T03:35:15.551Z,-5.6
2023-02-07T03:40:52.358Z,-5.6
2023-02-07T03:46:28.987Z,-5.6
2023-02-07T03:52:06.423Z,-5.6
2023-02-07T03:57:43.634Z,-5.6
2023-02-07T04:03:21.227Z,-5.6
2023-02-07T04:08:43.674Z,-5.6
2023-02-07T04:13:49.795Z,-5.6
2023-02-07T04:19:15.029Z,-5.6
2023-02-07T04:24:52.219Z,-5.6
2023-02-07T04:30:29.454Z,-5.6
2023-02-07T04:36:06.785Z,-5.7
2023-02-07T04:41:43.838Z,-5.7
2023-02-07T04:47:19.909Z,-5.8
2023-02-07T04:52:59.587Z,-5.8
2023-02-07T04:58:37.695Z,-5.8
2023-02-07T05:04:16.033Z,-5.8
2023-02-07T05:09:54.081Z,-5.8
2023-02-07T05:15:31.927Z,-5.9
2023-02-07T05:21:10.210Z,-5.9
2023-02-07T05:26:47.176Z,-5.9
2023-02-07T05:32:24.656Z,-5.9
2023-02-07T05:38:01.848Z,-5.9
2023-02-07T05:43:23.418Z,-5.9
2023-02-07T05:49:00.260Z,-5.9
2023-02-07T05:54:37.329Z,-6
2023-02-07T06:00:14.464Z,-6
2023-02-07T06:05:22.111Z,-5.9
2023-02-07T06:10:43.916Z,-5.9
2023-02-07T06:16:22.097Z,-5.9
2023-02-07T06:22:03.361Z,-5.8
2023-02-07T06:27:39.938Z,-5.8
2023-02-07T06:33:17.437Z,-5.6
2023-02-07T06:38:54.473Z,-5.6
2023-02-07T06:44:32.019Z,-5.4
2023-02-07T06:50:10.485Z,-5.2
2023-02-07T06:55:47.334Z,-5
2023-02-07T07:01:09.223Z,-4.8
2023-02-07T07:06:46.881Z,-4.3
2023-02-07T07:17:45.888Z,-3.3
2023-02-07T07:23:22.996Z,-2.8
2023-02-07T07:29:07.441Z,-2.1
2023-02-07T07:34:36.688Z,-1
2023-02-07T07:40:14.876Z,0.4
2023-02-07T07:45:53.078Z,2.1
2023-02-07T07:51:30.260Z,4
2023-02-07T07:56:51.741Z,9.1
2023-02-07T08:02:32.911Z,13.3
2023-02-07T08:08:09.992Z,14.4
2023-02-07T08:13:49.735Z,13.9
2023-02-07T08:19:26.582Z,15.8
2023-02-07T08:25:03.186Z,19.4
2023-02-07T08:30:39.655Z,20.8
2023-02-07T08:36:17.613Z,22.1
2023-02-07T08:41:56.555Z,25.1
2023-02-07T08:47:35.398Z,28.1
2023-02-07T08:53:13.925Z,32.9
2023-02-07T08:58:51.769Z,34.9
2023-02-07T09:04:30.375Z,9.2
2023-02-07T09:10:07.598Z,39.1
2023-02-07T09:15:48.314Z,34.1
2023-02-07T09:21:26.616Z,36.1
2023-02-07T09:27:04.931Z,36.8
2023-02-07T09:32:44.071Z,37.5
2023-02-07T09:38:06.936Z,38
2023-02-07T09:43:53.171Z,37.9
2023-02-07T09:49:30.807Z,40.4
2023-02-07T09:55:08.841Z,42.3
2023-02-07T10:00:46.332Z,44
2023-02-07T10:06:34.688Z,45.4
2023-02-07T10:12:21.295Z,46.3
2023-02-07T10:17:47.916Z,45.8
2023-02-07T10:23:25.899Z,46.3
2023-02-07T10:29:03.234Z,45.4
2023-02-07T10:34:25.660Z,47.6
2023-02-07T10:40:02.344Z,48.8
2023-02-07T10:45:42.978Z,49.8
2023-02-07T10:51:36.355Z,50.3
2023-02-07T10:57:21.058Z,50.3
2023-02-07T11:03:11.303Z,51.5
2023-02-07T11:08:41.970Z,52.2
2023-02-07T11:14:19.277Z,50.6
2023-02-07T11:25:23.235Z,48.4
2023-02-07T11:31:02.398Z,45.1
2023-02-07T11:36:40.735Z,43.1
2023-02-07T11:42:18.933Z,40.5
2023-02-07T11:48:00.961Z,37.8
2023-02-07T11:53:39.346Z,35.3
2023-02-07T11:59:16.414Z,33.4
2023-02-07T12:04:54.399Z,32.8
2023-02-07T12:10:31.871Z,31.9
2023-02-07T12:16:08.596Z,30.5
2023-02-07T12:22:01.766Z,30
2023-02-07T12:28:12.523Z,34.4
2023-02-07T12:34:00.912Z,26.6
2023-02-07T12:39:48.462Z,41.1
2023-02-07T12:45:26.690Z,37.4
2023-02-07T12:51:03.963Z,35.3
2023-02-07T12:56:41.894Z,34.4
2023-02-07T13:02:19.269Z,33.7
2023-02-07T13:07:56.889Z,33.4
2023-02-07T13:13:18.595Z,32.3
2023-02-07T13:18:58.658Z,31.4
2023-02-07T13:24:35.862Z,34.6
2023-02-07T13:30:13.647Z,38.1
2023-02-07T13:35:36.314Z,42.4
2023-02-07T13:41:09.185Z,41.1
2023-02-07T13:47:04.957Z,38.9
2023-02-07T13:52:42.481Z,36.8
2023-02-07T13:58:03.842Z,34.4
2023-02-07T14:03:41.300Z,32
2023-02-07T14:09:19.070Z,29.6
2023-02-07T14:15:02.457Z,27.4
2023-02-07T14:20:41.046Z,25.3
2023-02-07T14:26:19.354Z,24
2023-02-07T14:31:56.844Z,23.2
2023-02-07T14:37:34.905Z,22.6
2023-02-07T14:43:26.962Z,22
2023-02-07T14:49:12.841Z,21.4
2023-02-07T14:54:50.294Z,20.8
2023-02-07T15:00:27.712Z,20.1
2023-02-07T15:06:05.121Z,19.2
2023-02-07T15:11:59.665Z,18.2
2023-02-07T15:18:00.567Z,17.2
2023-02-07T15:23:51.897Z,15.9
2023-02-07T15:34:56.404Z,13.6
2023-02-07T15:40:18.524Z,12.5
2023-02-07T15:46:02.469Z,11.3
2023-02-07T15:51:39.510Z,10.3
2023-02-07T15:57:16.939Z,9.3
2023-02-07T16:02:54.417Z,8.2
2023-02-07T16:08:31.719Z,7.3
2023-02-07T16:14:07.657Z,6.4
2023-02-07T16:19:45.087Z,5.6
2023-02-07T16:25:22.377Z,4.9
2023-02-07T16:30:59.955Z,4.2
2023-02-07T16:36:37.296Z,3.5
2023-02-07T16:41:58.610Z,2.9
2023-02-07T16:52:11.818Z,1.9
2023-02-07T16:57:48.416Z,1.4
2023-02-07T17:03:25.933Z,0.9
2023-02-07T17:08:47.544Z,0.4
2023-02-07T17:14:25.181Z,-0.1
2023-02-07T17:19:47.422Z,-0.5
2023-02-07T17:25:11.637Z,-0.9
2023-02-07T17:30:33.036Z,-1.3
2023-02-07T17:35:54.715Z,-1.6
2023-02-07T17:41:16.737Z,-1.9
2023-02-07T17:46:53.840Z,-2.3
2023-02-07T17:52:30.225Z,-2.6
2023-02-07T17:58:07.224Z,-2.9
2023-02-07T18:03:44.528Z,-3.2
2023-02-07T18:09:20.896Z,-3.4
2023-02-07T18:20:05.016Z,-4
2023-02-07T18:25:44.383Z,-4.3
2023-02-07T18:31:08.352Z,-4.4
2023-02-07T18:36:30.267Z,-4.7
2023-02-07T18:42:07.242Z,-4.9
2023-02-07T18:47:29.068Z,-5.1
2023-02-07T18:53:06.142Z,-5.3
2023-02-07T18:58:26.828Z,-5.4
2023-02-07T19:04:05.144Z,-5.6
2023-02-07T19:15:04.052Z,-5.9
2023-02-07T19:20:41.709Z,-6.1
2023-02-07T19:26:16.247Z,-6.2
2023-02-07T19:31:54.053Z,-6.3
2023-02-07T19:37:31.789Z,-6.4
2023-02-07T19:43:09.356Z,-6.5
2023-02-07T19:48:46.022Z,-6.6
2023-02-07T19:54:23.154Z,-6.7
2023-02-07T19:59:45.807Z,-6.8
2023-02-07T20:05:24.116Z,-6.9
2023-02-07T20:16:22.593Z,-7.1
2023-02-07T20:22:05.261Z,-7.1
2023-02-07T20:27:43.123Z,-7.2
2023-02-07T20:38:27.795Z,-7.3
2023-02-07T20:43:50.567Z,-7.4
2023-02-07T20:49:28.025Z,-7.4
2023-02-07T20:55:04.762Z,-7.5
2023-02-07T21:00:26.866Z,-7.6
2023-02-07T21:05:49.796Z,-7.6
2023-02-07T21:11:27.857Z,-7.6
2023-02-07T21:17:13.775Z,-7.7
2023-02-07T21:22:50.710Z,-7.7
2023-02-07T21:28:27.651Z,-7.7
2023-02-07T21:33:52.229Z,-7.8
2023-02-07T21:39:29.725Z,-7.8
2023-02-07T21:45:06.231Z,-7.8
2023-02-07T21:50:44.432Z,-7.9
2023-02-07T21:55:50.871Z,-7.9
2023-02-07T22:00:58.162Z,-7.9
2023-02-07T22:06:38.182Z,-7.9
2023-02-07T22:12:15.384Z,-7.9
2023-02-07T22:17:52.522Z,-7.9
2023-02-07T22:23:30.067Z,-7.9
2023-02-07T22:28:51.682Z,-7.9
2023-02-07T22:34:15.475Z,-7.9
2023-02-07T22:39:52.596Z,-7.9
2023-02-07T22:45:29.977Z,-7.9
2023-02-07T22:51:06.830Z,-7.9
2023-02-07T22:56:45.102Z,-7.9
2023-02-07T23:02:23.468Z,-7.9
2023-02-07T23:07:45.640Z,-7.9
2023-02-07T23:13:23.366Z,-7.9
2023-02-07T23:18:46.193Z,-7.9
2023-02-07T23:24:23.359Z,-7.8
2023-02-07T23:30:00.995Z,-7.8
2023-02-07T23:35:23.064Z,-7.8
2023-02-07T23:40:59.852Z,-7.7
2023-02-07T23:46:37.002Z,-7.6
2023-02-07T23:51:59.765Z,-7.6
2023-02-07T23:57:36.624Z,-7.6
